FDX5819 RJBB-ZBAA
Flight info
| Callsign | FDX5819 |
|---|---|
| Flight time | N/A |
| Altitude | 34000 |
| Route | SOUJA Y324 STAGE Y38 SAPRA G585 SEL G597 ANSIM Y697 NOGON/K0906S1040 DCT DONVO DCT GUMED DCT DOVIV W55 DUMAP DUMAP9Z |
| Aircraft | B77L/H-SDE1E2E3FGHIJ2J3J4J5M1RWXY/LB1D1 |
Departure
| Time | N/A |
|---|---|
| Airport | Kansai International Airport (RJBB) |
Arrival
| Time | 2026-05-07 09:43 |
|---|---|
| Airport | Beijing Capital International Airport (ZBAA) |
| Time | Latitude | Longitude | Altitude | Speed | Heading |
|---|---|---|---|---|---|
| 2026-05-07 09:43 | 40.09286 | 116.57343 | 126 ft | 13 kts | 173° |
| 2026-05-07 09:43 | 40.09193 | 116.57357 | 125 ft | 14 kts | 173° |
| 2026-05-07 09:43 | 40.09099 | 116.57372 | 126 ft | 14 kts | 173° |
| 2026-05-07 09:43 | 40.09004 | 116.57387 | 125 ft | 14 kts | 172° |
| 2026-05-07 09:44 | 40.08926 | 116.57410 | 125 ft | 11 kts | 159° |
| 2026-05-07 09:44 | 40.08908 | 116.57505 | 128 ft | 12 kts | 82° |
| 2026-05-07 09:44 | 40.08919 | 116.57610 | 126 ft | 12 kts | 82° |
| 2026-05-07 09:44 | 40.08931 | 116.57715 | 124 ft | 12 kts | 84° |
| 2026-05-07 09:45 | 40.08939 | 116.57821 | 127 ft | 12 kts | 84° |
| 2026-05-07 09:45 | 40.08948 | 116.57927 | 128 ft | 12 kts | 84° |
| 2026-05-07 09:45 | 40.08956 | 116.58033 | 125 ft | 12 kts | 83° |
| 2026-05-07 09:45 | 40.08966 | 116.58138 | 129 ft | 12 kts | 83° |
| 2026-05-07 09:46 | 40.08975 | 116.58242 | 127 ft | 12 kts | 83° |
| 2026-05-07 09:46 | 40.08986 | 116.58349 | 129 ft | 12 kts | 83° |
| 2026-05-07 09:46 | 40.08996 | 116.58454 | 126 ft | 12 kts | 82° |
| 2026-05-07 09:46 | 40.09007 | 116.58560 | 126 ft | 12 kts | 82° |
| 2026-05-07 09:47 | 40.09018 | 116.58664 | 126 ft | 12 kts | 82° |
| 2026-05-07 09:47 | 40.09026 | 116.58770 | 125 ft | 12 kts | 83° |
| 2026-05-07 09:47 | 40.09036 | 116.58876 | 126 ft | 12 kts | 84° |
| 2026-05-07 09:47 | 40.09063 | 116.58973 | 125 ft | 12 kts | 34° |
| 2026-05-07 09:48 | 40.09146 | 116.58986 | 126 ft | 12 kts | 4° |
| 2026-05-07 09:48 | 40.09210 | 116.59054 | 125 ft | 12 kts | 49° |
| 2026-05-07 09:48 | 40.09293 | 116.59077 | 126 ft | 13 kts | 357° |
| 2026-05-07 09:48 | 40.09380 | 116.59068 | 126 ft | 13 kts | 352° |
| 2026-05-07 09:49 | 40.09532 | 116.59042 | 123 ft | 25 kts | 353° |
| 2026-05-07 09:49 | 40.09701 | 116.59012 | 126 ft | 25 kts | 352° |
| 2026-05-07 09:49 | 40.09864 | 116.58986 | 127 ft | 19 kts | 353° |
| 2026-05-07 09:49 | 40.09955 | 116.58972 | 126 ft | 10 kts | 353° |
| 2026-05-07 09:50 | 40.10021 | 116.58985 | 126 ft | 10 kts | 38° |
| 2026-05-07 09:50 | 40.10042 | 116.59070 | 126 ft | 10 kts | 80° |
| 2026-05-07 09:50 | 40.10053 | 116.59160 | 124 ft | 10 kts | 81° |
| 2026-05-07 09:50 | 40.10063 | 116.59251 | 128 ft | 10 kts | 81° |
| 2026-05-07 09:51 | 40.10074 | 116.59341 | 126 ft | 10 kts | 81° |
| 2026-05-07 09:51 | 40.10081 | 116.59433 | 125 ft | 10 kts | 89° |
| 2026-05-07 09:51 | 40.10085 | 116.59524 | 126 ft | 10 kts | 86° |
| 2026-05-07 09:51 | 40.10093 | 116.59617 | 126 ft | 10 kts | 83° |
| 2026-05-07 09:52 | 40.10099 | 116.59704 | 127 ft | 9 kts | 94° |
| 2026-05-07 09:52 | 40.10060 | 116.59764 | 125 ft | 9 kts | 164° |
| 2026-05-07 09:52 | 40.09997 | 116.59781 | 125 ft | 8 kts | 169° |
| 2026-05-07 09:52 | 40.09945 | 116.59790 | 126 ft | 2 kts | 173° |
| 2026-05-07 09:53 | 40.09927 | 116.59796 | 125 ft | 3 kts | 153° |
| 2026-05-07 09:53 | 40.09920 | 116.59819 | 125 ft | 3 kts | 95° |
| 2026-05-07 09:53 | 40.09919 | 116.59848 | 126 ft | 3 kts | 88° |
| 2026-05-07 09:53 | 40.09921 | 116.59881 | 125 ft | 4 kts | 87° |
| 2026-05-07 09:54 | 40.09924 | 116.59917 | 126 ft | 4 kts | 83° |
| 2026-05-07 09:54 | 40.09924 | 116.59919 | 127 ft | 0 kts | 83° |